Overview Statistics Trail Chart Weather Telemetry Raw packets
 

This is the latest recevied weather packets stored in our database for station/object HS5XHC-1. If no packets are shown the sender has not sent any weather packets the latest 10 day(s).

<< 40 41 42 43 44 45 46 >>
Time Temp. Humidity Pressure Rain* Wind** Luminosity Snow
1777256812 29.44° C 51% 968 hPa - - 0 W/m² -
1777256188 29.44° C 52% 968 hPa - - 0 W/m² -
1777255564 28.33° C 54% 968 hPa - - 0 W/m² -
1777254940 28.33° C 54% 968 hPa - - 0 W/m² -
1777254316 28.33° C 54% 968 hPa - - 0 W/m² -
1777253692 27.78° C 54% 968 hPa - - 0 W/m² -
1777253068 27.78° C 55% 967 hPa - - 0 W/m² -
1777252444 27.78° C 54% 967 hPa - - 0 W/m² -
1777251820 27.78° C 55% 967 hPa - - 0 W/m² -
1777251196 27.22° C 57% 967 hPa - - 0 W/m² -
1777250572 26.67° C 58% 967 hPa - - 0 W/m² -
1777249948 27.22° C 56% 967 hPa - - 0 W/m² -
1777249324 28.33° C 53% 967 hPa - - 0 W/m² -
1777248700 28.33° C 53% 967 hPa - - 0 W/m² -
1777248076 28.33° C 53% 967 hPa - - 0 W/m² -
1777247452 28.33° C 53% 967 hPa - - 0 W/m² -
1777246828 28.33° C 54% 966 hPa - - 0 W/m² -
1777246204 27.78° C 54% 966 hPa - - 0 W/m² -
1777245580 28.33° C 53% 966 hPa - - 0 W/m² -
1777244956 28.33° C 52% 966 hPa - - 0 W/m² -
1777244332 28.33° C 52% 965 hPa - - 0 W/m² -
1777243708 27.78° C 54% 965 hPa - - 0 W/m² -
1777243084 27.78° C 54% 965 hPa - - 0 W/m² -
1777242460 28.33° C 52% 965 hPa - - 0 W/m² -
1777241836 28.33° C 53% 965 hPa - - 0 W/m² -

* Rain since midnight (hover to see other rain measurements)
** Current wind speed in m/s (hover to see current wind gust speed)